sensor_id;sensor_type;location;lat;lon;timestamp;temperature;humidity
10344;DHT22;5217;43.960;10.954;2023-08-24T00:01:48;31.80;71.70
10344;DHT22;5217;43.960;10.954;2023-08-24T00:04:16;31.80;71.80
10344;DHT22;5217;43.960;10.954;2023-08-24T00:06:44;31.80;71.90
10344;DHT22;5217;43.960;10.954;2023-08-24T00:09:13;31.80;71.90
10344;DHT22;5217;43.960;10.954;2023-08-24T00:11:44;31.70;71.90
10344;DHT22;5217;43.960;10.954;2023-08-24T00:14:12;31.70;71.90
10344;DHT22;5217;43.960;10.954;2023-08-24T00:16:42;31.70;71.80
10344;DHT22;5217;43.960;10.954;2023-08-24T00:19:10;31.70;71.70
10344;DHT22;5217;43.960;10.954;2023-08-24T00:21:39;31.70;72.70
10344;DHT22;5217;43.960;10.954;2023-08-24T00:24:07;31.60;71.80
10344;DHT22;5217;43.960;10.954;2023-08-24T00:26:35;31.70;71.80
10344;DHT22;5217;43.960;10.954;2023-08-24T00:29:05;31.60;71.70
10344;DHT22;5217;43.960;10.954;2023-08-24T00:31:34;31.60;71.60
10344;DHT22;5217;43.960;10.954;2023-08-24T00:34:02;31.60;71.80
10344;DHT22;5217;43.960;10.954;2023-08-24T00:36:31;31.50;71.50
10344;DHT22;5217;43.960;10.954;2023-08-24T00:38:59;31.50;71.40
10344;DHT22;5217;43.960;10.954;2023-08-24T00:41:28;31.50;71.40
10344;DHT22;5217;43.960;10.954;2023-08-24T00:43:57;31.50;71.30
10344;DHT22;5217;43.960;10.954;2023-08-24T00:46:27;31.40;71.10
10344;DHT22;5217;43.960;10.954;2023-08-24T00:48:55;31.50;70.90
10344;DHT22;5217;43.960;10.954;2023-08-24T00:51:24;31.50;71.00
10344;DHT22;5217;43.960;10.954;2023-08-24T00:53:53;31.50;71.00
10344;DHT22;5217;43.960;10.954;2023-08-24T00:56:22;31.40;71.00
10344;DHT22;5217;43.960;10.954;2023-08-24T00:58:52;31.40;71.30
10344;DHT22;5217;43.960;10.954;2023-08-24T01:01:22;31.40;71.60
10344;DHT22;5217;43.960;10.954;2023-08-24T01:03:52;31.40;71.70
10344;DHT22;5217;43.960;10.954;2023-08-24T01:06:21;31.30;71.70
10344;DHT22;5217;43.960;10.954;2023-08-24T01:08:50;31.30;71.80
10344;DHT22;5217;43.960;10.954;2023-08-24T01:11:31;31.30;71.90
10344;DHT22;5217;43.960;10.954;2023-08-24T01:14:07;31.30;72.00
10344;DHT22;5217;43.960;10.954;2023-08-24T01:16:37;31.30;72.10
10344;DHT22;5217;43.960;10.954;2023-08-24T01:19:21;31.20;72.00
10344;DHT22;5217;43.960;10.954;2023-08-24T01:21:54;31.20;72.10
10344;DHT22;5217;43.960;10.954;2023-08-24T01:24:31;31.20;72.20
10344;DHT22;5217;43.960;10.954;2023-08-24T01:27:06;31.20;72.40
10344;DHT22;5217;43.960;10.954;2023-08-24T01:29:35;31.20;72.30
10344;DHT22;5217;43.960;10.954;2023-08-24T01:32:04;31.10;72.30
10344;DHT22;5217;43.960;10.954;2023-08-24T01:34:32;31.10;72.30
10344;DHT22;5217;43.960;10.954;2023-08-24T01:37:01;31.10;72.40
10344;DHT22;5217;43.960;10.954;2023-08-24T01:39:37;31.10;72.50
10344;DHT22;5217;43.960;10.954;2023-08-24T01:42:11;31.10;72.80
10344;DHT22;5217;43.960;10.954;2023-08-24T01:44:44;31.10;72.80
10344;DHT22;5217;43.960;10.954;2023-08-24T01:47:15;31.00;72.90
10344;DHT22;5217;43.960;10.954;2023-08-24T01:49:44;31.00;72.90
10344;DHT22;5217;43.960;10.954;2023-08-24T01:52:13;31.00;73.00
10344;DHT22;5217;43.960;10.954;2023-08-24T01:54:43;30.90;72.90
10344;DHT22;5217;43.960;10.954;2023-08-24T01:57:13;30.90;73.00
10344;DHT22;5217;43.960;10.954;2023-08-24T01:59:41;30.90;73.00
10344;DHT22;5217;43.960;10.954;2023-08-24T02:02:09;30.90;73.30
10344;DHT22;5217;43.960;10.954;2023-08-24T02:04:38;30.90;73.30
10344;DHT22;5217;43.960;10.954;2023-08-24T02:07:06;30.90;73.30
10344;DHT22;5217;43.960;10.954;2023-08-24T02:09:34;30.80;73.30
10344;DHT22;5217;43.960;10.954;2023-08-24T02:12:03;30.80;73.10
10344;DHT22;5217;43.960;10.954;2023-08-24T02:14:33;30.80;73.10
10344;DHT22;5217;43.960;10.954;2023-08-24T02:17:01;30.80;73.10
10344;DHT22;5217;43.960;10.954;2023-08-24T02:19:30;30.80;73.30
10344;DHT22;5217;43.960;10.954;2023-08-24T02:21:59;30.80;73.50
10344;DHT22;5217;43.960;10.954;2023-08-24T02:24:27;30.70;73.40
10344;DHT22;5217;43.960;10.954;2023-08-24T02:26:55;30.70;73.40
10344;DHT22;5217;43.960;10.954;2023-08-24T02:29:24;30.70;73.50
10344;DHT22;5217;43.960;10.954;2023-08-24T02:31:54;30.60;73.60
10344;DHT22;5217;43.960;10.954;2023-08-24T02:34:22;30.60;73.50
10344;DHT22;5217;43.960;10.954;2023-08-24T02:36:50;30.60;73.60
10344;DHT22;5217;43.960;10.954;2023-08-24T02:39:19;30.60;74.00
10344;DHT22;5217;43.960;10.954;2023-08-24T02:41:47;30.60;74.10
10344;DHT22;5217;43.960;10.954;2023-08-24T02:44:15;30.60;74.20
10344;DHT22;5217;43.960;10.954;2023-08-24T02:46:44;30.60;74.50
10344;DHT22;5217;43.960;10.954;2023-08-24T02:49:14;30.50;74.60
10344;DHT22;5217;43.960;10.954;2023-08-24T02:51:43;30.50;74.70
10344;DHT22;5217;43.960;10.954;2023-08-24T02:54:11;30.50;74.80
10344;DHT22;5217;43.960;10.954;2023-08-24T02:56:39;30.50;74.90
10344;DHT22;5217;43.960;10.954;2023-08-24T02:59:08;30.50;75.00
10344;DHT22;5217;43.960;10.954;2023-08-24T03:01:36;30.50;75.00
10344;DHT22;5217;43.960;10.954;2023-08-24T03:04:05;30.50;74.90
10344;DHT22;5217;43.960;10.954;2023-08-24T03:06:35;30.40;74.70
10344;DHT22;5217;43.960;10.954;2023-08-24T03:09:03;30.40;74.50
10344;DHT22;5217;43.960;10.954;2023-08-24T03:11:32;30.40;74.40
10344;DHT22;5217;43.960;10.954;2023-08-24T03:14:00;30.40;74.30
10344;DHT22;5217;43.960;10.954;2023-08-24T03:16:29;30.40;74.30
10344;DHT22;5217;43.960;10.954;2023-08-24T03:18:57;30.30;74.30
10344;DHT22;5217;43.960;10.954;2023-08-24T03:21:25;30.30;74.30
10344;DHT22;5217;43.960;10.954;2023-08-24T03:23:55;30.30;74.20
10344;DHT22;5217;43.960;10.954;2023-08-24T03:26:23;30.30;74.20
10344;DHT22;5217;43.960;10.954;2023-08-24T03:28:51;30.30;74.10
10344;DHT22;5217;43.960;10.954;2023-08-24T03:31:20;30.30;74.00
10344;DHT22;5217;43.960;10.954;2023-08-24T03:33:48;30.30;74.10
10344;DHT22;5217;43.960;10.954;2023-08-24T03:36:16;30.30;74.00
10344;DHT22;5217;43.960;10.954;2023-08-24T03:38:45;30.20;73.90
10344;DHT22;5217;43.960;10.954;2023-08-24T03:41:15;30.20;74.00
10344;DHT22;5217;43.960;10.954;2023-08-24T03:43:43;30.20;73.90
10344;DHT22;5217;43.960;10.954;2023-08-24T03:46:12;30.20;73.90
10344;DHT22;5217;43.960;10.954;2023-08-24T03:48:40;30.20;73.70
10344;DHT22;5217;43.960;10.954;2023-08-24T03:51:09;30.20;73.60
10344;DHT22;5217;43.960;10.954;2023-08-24T03:53:37;30.10;73.40
10344;DHT22;5217;43.960;10.954;2023-08-24T03:56:05;30.10;73.50
10344;DHT22;5217;43.960;10.954;2023-08-24T03:58:35;30.10;73.60
10344;DHT22;5217;43.960;10.954;2023-08-24T04:01:04;30.10;73.70
10344;DHT22;5217;43.960;10.954;2023-08-24T04:03:34;30.00;73.60
10344;DHT22;5217;43.960;10.954;2023-08-24T04:06:02;30.00;73.60
10344;DHT22;5217;43.960;10.954;2023-08-24T04:08:30;30.00;73.60
10344;DHT22;5217;43.960;10.954;2023-08-24T04:10:59;30.00;73.60
10344;DHT22;5217;43.960;10.954;2023-08-24T04:13:27;30.00;73.60
10344;DHT22;5217;43.960;10.954;2023-08-24T04:15:57;30.00;73.60
10344;DHT22;5217;43.960;10.954;2023-08-24T04:18:25;30.00;73.30
10344;DHT22;5217;43.960;10.954;2023-08-24T04:20:54;29.90;73.40
10344;DHT22;5217;43.960;10.954;2023-08-24T04:23:24;29.90;73.40
10344;DHT22;5217;43.960;10.954;2023-08-24T04:25:54;29.90;73.50
10344;DHT22;5217;43.960;10.954;2023-08-24T04:28:22;29.90;73.40
10344;DHT22;5217;43.960;10.954;2023-08-24T04:30:51;29.90;73.20
10344;DHT22;5217;43.960;10.954;2023-08-24T04:33:21;29.80;72.70
10344;DHT22;5217;43.960;10.954;2023-08-24T04:35:50;29.80;73.00
10344;DHT22;5217;43.960;10.954;2023-08-24T04:38:18;29.80;73.30
10344;DHT22;5217;43.960;10.954;2023-08-24T04:40:49;29.80;73.40
10344;DHT22;5217;43.960;10.954;2023-08-24T04:43:18;29.80;73.40
10344;DHT22;5217;43.960;10.954;2023-08-24T04:45:48;29.80;74.00
10344;DHT22;5217;43.960;10.954;2023-08-24T04:48:21;29.80;73.20
10344;DHT22;5217;43.960;10.954;2023-08-24T04:50:50;29.80;73.00
10344;DHT22;5217;43.960;10.954;2023-08-24T04:53:20;29.70;73.00
10344;DHT22;5217;43.960;10.954;2023-08-24T04:55:48;29.70;73.20
10344;DHT22;5217;43.960;10.954;2023-08-24T04:58:16;29.70;73.70
10344;DHT22;5217;43.960;10.954;2023-08-24T05:00:45;29.70;73.50
10344;DHT22;5217;43.960;10.954;2023-08-24T05:03:13;29.70;73.50
10344;DHT22;5217;43.960;10.954;2023-08-24T05:05:44;29.70;73.40
10344;DHT22;5217;43.960;10.954;2023-08-24T05:08:13;29.70;73.50
10344;DHT22;5217;43.960;10.954;2023-08-24T05:10:41;29.60;73.60
10344;DHT22;5217;43.960;10.954;2023-08-24T05:13:10;29.70;74.00
10344;DHT22;5217;43.960;10.954;2023-08-24T05:15:38;29.60;74.20
10344;DHT22;5217;43.960;10.954;2023-08-24T05:18:06;29.50;73.70
10344;DHT22;5217;43.960;10.954;2023-08-24T05:20:35;29.50;73.80
10344;DHT22;5217;43.960;10.954;2023-08-24T05:23:05;29.50;74.00
10344;DHT22;5217;43.960;10.954;2023-08-24T05:25:33;29.50;74.00
10344;DHT22;5217;43.960;10.954;2023-08-24T05:28:02;29.50;74.10
10344;DHT22;5217;43.960;10.954;2023-08-24T05:30:30;29.50;74.70
10344;DHT22;5217;43.960;10.954;2023-08-24T05:32:59;29.50;75.00
10344;DHT22;5217;43.960;10.954;2023-08-24T05:35:28;29.50;75.00
10344;DHT22;5217;43.960;10.954;2023-08-24T05:37:56;29.50;75.00
10344;DHT22;5217;43.960;10.954;2023-08-24T05:40:26;29.50;75.30
10344;DHT22;5217;43.960;10.954;2023-08-24T05:42:54;29.40;75.50
10344;DHT22;5217;43.960;10.954;2023-08-24T05:45:23;29.40;75.80
10344;DHT22;5217;43.960;10.954;2023-08-24T05:47:52;29.40;76.50
10344;DHT22;5217;43.960;10.954;2023-08-24T05:50:21;29.40;77.10
10344;DHT22;5217;43.960;10.954;2023-08-24T05:52:49;29.40;77.60
10344;DHT22;5217;43.960;10.954;2023-08-24T05:55:18;29.40;78.00
10344;DHT22;5217;43.960;10.954;2023-08-24T05:57:48;29.40;78.40
10344;DHT22;5217;43.960;10.954;2023-08-24T06:00:17;29.40;78.70
10344;DHT22;5217;43.960;10.954;2023-08-24T06:02:46;29.30;78.90
10344;DHT22;5217;43.960;10.954;2023-08-24T06:05:15;29.30;79.30
10344;DHT22;5217;43.960;10.954;2023-08-24T06:07:45;29.40;80.00
10344;DHT22;5217;43.960;10.954;2023-08-24T06:10:13;29.40;80.60
10344;DHT22;5217;43.960;10.954;2023-08-24T06:12:42;29.40;81.20
10344;DHT22;5217;43.960;10.954;2023-08-24T06:15:11;29.40;81.90
10344;DHT22;5217;43.960;10.954;2023-08-24T06:17:41;29.40;81.70
10344;DHT22;5217;43.960;10.954;2023-08-24T06:20:10;29.40;81.50
10344;DHT22;5217;43.960;10.954;2023-08-24T06:22:39;29.30;81.30
10344;DHT22;5217;43.960;10.954;2023-08-24T06:25:09;29.40;81.40
10344;DHT22;5217;43.960;10.954;2023-08-24T06:27:37;29.40;82.20
10344;DHT22;5217;43.960;10.954;2023-08-24T06:30:07;29.40;82.30
10344;DHT22;5217;43.960;10.954;2023-08-24T06:32:36;29.40;82.70
10344;DHT22;5217;43.960;10.954;2023-08-24T06:35:05;29.40;82.80
10344;DHT22;5217;43.960;10.954;2023-08-24T06:37:34;29.40;81.70
10344;DHT22;5217;43.960;10.954;2023-08-24T06:40:03;29.40;82.40
10344;DHT22;5217;43.960;10.954;2023-08-24T06:42:32;29.30;82.10
10344;DHT22;5217;43.960;10.954;2023-08-24T06:45:01;29.30;82.30
10344;DHT22;5217;43.960;10.954;2023-08-24T06:47:29;29.30;82.60
10344;DHT22;5217;43.960;10.954;2023-08-24T06:49:59;29.30;82.70
10344;DHT22;5217;43.960;10.954;2023-08-24T06:52:28;29.40;82.40
10344;DHT22;5217;43.960;10.954;2023-08-24T06:54:56;29.40;82.70
10344;DHT22;5217;43.960;10.954;2023-08-24T06:57:25;29.40;83.00
10344;DHT22;5217;43.960;10.954;2023-08-24T06:59:53;29.40;82.90
10344;DHT22;5217;43.960;10.954;2023-08-24T07:02:21;29.50;82.80
10344;DHT22;5217;43.960;10.954;2023-08-24T07:04:50;29.40;82.70
10344;DHT22;5217;43.960;10.954;2023-08-24T07:07:20;29.40;82.80
10344;DHT22;5217;43.960;10.954;2023-08-24T07:09:48;29.50;82.80
10344;DHT22;5217;43.960;10.954;2023-08-24T07:12:16;29.50;83.60
10344;DHT22;5217;43.960;10.954;2023-08-24T07:14:45;29.50;83.70
10344;DHT22;5217;43.960;10.954;2023-08-24T07:17:13;29.50;83.30
10344;DHT22;5217;43.960;10.954;2023-08-24T07:19:41;29.50;83.10
10344;DHT22;5217;43.960;10.954;2023-08-24T07:22:10;29.50;83.20
10344;DHT22;5217;43.960;10.954;2023-08-24T07:24:40;29.50;83.40
10344;DHT22;5217;43.960;10.954;2023-08-24T07:27:12;29.50;83.60
10344;DHT22;5217;43.960;10.954;2023-08-24T07:29:40;29.50;83.70
10344;DHT22;5217;43.960;10.954;2023-08-24T07:32:09;29.60;83.40
10344;DHT22;5217;43.960;10.954;2023-08-24T07:34:37;29.60;83.40
10344;DHT22;5217;43.960;10.954;2023-08-24T07:37:06;29.60;83.20
10344;DHT22;5217;43.960;10.954;2023-08-24T07:39:34;29.60;83.70
10344;DHT22;5217;43.960;10.954;2023-08-24T07:42:04;29.60;83.70
10344;DHT22;5217;43.960;10.954;2023-08-24T07:44:32;29.60;83.70
10344;DHT22;5217;43.960;10.954;2023-08-24T07:47:01;29.70;83.40
10344;DHT22;5217;43.960;10.954;2023-08-24T07:49:29;29.60;82.90
10344;DHT22;5217;43.960;10.954;2023-08-24T07:51:58;29.70;82.70
10344;DHT22;5217;43.960;10.954;2023-08-24T07:54:26;29.70;82.60
10344;DHT22;5217;43.960;10.954;2023-08-24T07:56:55;29.80;82.80
10344;DHT22;5217;43.960;10.954;2023-08-24T07:59:24;29.80;83.20
10344;DHT22;5217;43.960;10.954;2023-08-24T08:01:53;29.80;83.00
10344;DHT22;5217;43.960;10.954;2023-08-24T08:04:22;29.80;83.40
10344;DHT22;5217;43.960;10.954;2023-08-24T08:06:50;29.80;83.40
10344;DHT22;5217;43.960;10.954;2023-08-24T08:09:18;29.80;83.70
10344;DHT22;5217;43.960;10.954;2023-08-24T08:11:47;29.80;84.10
10344;DHT22;5217;43.960;10.954;2023-08-24T08:14:15;29.90;84.30
10344;DHT22;5217;43.960;10.954;2023-08-24T08:16:45;29.90;84.10
10344;DHT22;5217;43.960;10.954;2023-08-24T08:19:13;29.90;84.50
10344;DHT22;5217;43.960;10.954;2023-08-24T08:21:42;29.90;83.70
10344;DHT22;5217;43.960;10.954;2023-08-24T08:24:10;29.90;83.70
10344;DHT22;5217;43.960;10.954;2023-08-24T08:26:51;30.00;84.10
10344;DHT22;5217;43.960;10.954;2023-08-24T08:29:19;30.00;84.60
10344;DHT22;5217;43.960;10.954;2023-08-24T08:31:49;30.00;84.40
10344;DHT22;5217;43.960;10.954;2023-08-24T08:34:18;30.00;84.10
10344;DHT22;5217;43.960;10.954;2023-08-24T08:36:46;30.00;84.00
10344;DHT22;5217;43.960;10.954;2023-08-24T08:39:14;30.10;83.70
10344;DHT22;5217;43.960;10.954;2023-08-24T08:41:46;30.10;83.60
10344;DHT22;5217;43.960;10.954;2023-08-24T08:44:14;30.10;83.30
10344;DHT22;5217;43.960;10.954;2023-08-24T08:46:43;30.20;83.40
10344;DHT22;5217;43.960;10.954;2023-08-24T08:49:14;30.20;83.30
10344;DHT22;5217;43.960;10.954;2023-08-24T08:51:44;30.20;83.20
10344;DHT22;5217;43.960;10.954;2023-08-24T08:54:12;30.20;83.90
10344;DHT22;5217;43.960;10.954;2023-08-24T08:56:41;30.20;81.70
10344;DHT22;5217;43.960;10.954;2023-08-24T08:59:12;30.20;81.40
10344;DHT22;5217;43.960;10.954;2023-08-24T09:01:43;30.20;81.20
10344;DHT22;5217;43.960;10.954;2023-08-24T09:04:14;30.30;81.70
10344;DHT22;5217;43.960;10.954;2023-08-24T09:06:42;30.30;81.40
10344;DHT22;5217;43.960;10.954;2023-08-24T09:09:12;30.30;81.20
10344;DHT22;5217;43.960;10.954;2023-08-24T09:11:40;30.40;81.10
10344;DHT22;5217;43.960;10.954;2023-08-24T09:14:09;30.40;80.40
10344;DHT22;5217;43.960;10.954;2023-08-24T09:16:37;30.40;79.10
10344;DHT22;5217;43.960;10.954;2023-08-24T09:19:06;30.40;77.10
10344;DHT22;5217;43.960;10.954;2023-08-24T09:21:38;30.40;76.30
10344;DHT22;5217;43.960;10.954;2023-08-24T09:24:11;30.40;75.90
10344;DHT22;5217;43.960;10.954;2023-08-24T09:26:40;30.50;75.80
10344;DHT22;5217;43.960;10.954;2023-08-24T09:29:14;30.50;75.80
10344;DHT22;5217;43.960;10.954;2023-08-24T09:31:43;30.50;76.30
10344;DHT22;5217;43.960;10.954;2023-08-24T09:34:12;30.50;77.30
10344;DHT22;5217;43.960;10.954;2023-08-24T09:36:42;30.50;75.80
10344;DHT22;5217;43.960;10.954;2023-08-24T09:39:16;30.60;76.00
10344;DHT22;5217;43.960;10.954;2023-08-24T09:41:48;30.70;74.80
10344;DHT22;5217;43.960;10.954;2023-08-24T09:44:17;30.70;75.10
10344;DHT22;5217;43.960;10.954;2023-08-24T09:46:46;30.70;73.80
10344;DHT22;5217;43.960;10.954;2023-08-24T09:49:14;30.70;72.20
10344;DHT22;5217;43.960;10.954;2023-08-24T09:51:45;30.70;71.40
10344;DHT22;5217;43.960;10.954;2023-08-24T09:54:16;30.70;70.60
10344;DHT22;5217;43.960;10.954;2023-08-24T09:56:48;30.80;71.30
10344;DHT22;5217;43.960;10.954;2023-08-24T09:59:18;30.80;71.30
10344;DHT22;5217;43.960;10.954;2023-08-24T10:01:51;30.80;71.70
10344;DHT22;5217;43.960;10.954;2023-08-24T10:04:25;30.90;72.20
10344;DHT22;5217;43.960;10.954;2023-08-24T10:06:59;30.90;71.90
10344;DHT22;5217;43.960;10.954;2023-08-24T10:09:34;30.90;72.40
10344;DHT22;5217;43.960;10.954;2023-08-24T10:12:04;31.00;72.70
10344;DHT22;5217;43.960;10.954;2023-08-24T10:14:40;31.00;71.90
10344;DHT22;5217;43.960;10.954;2023-08-24T10:17:11;31.10;72.10
10344;DHT22;5217;43.960;10.954;2023-08-24T10:19:42;31.10;71.80
10344;DHT22;5217;43.960;10.954;2023-08-24T10:22:12;31.10;71.50
10344;DHT22;5217;43.960;10.954;2023-08-24T10:24:42;31.20;71.00
10344;DHT22;5217;43.960;10.954;2023-08-24T10:27:12;31.20;69.70
10344;DHT22;5217;43.960;10.954;2023-08-24T10:29:41;31.20;69.60
10344;DHT22;5217;43.960;10.954;2023-08-24T10:32:09;31.20;67.60
10344;DHT22;5217;43.960;10.954;2023-08-24T10:34:38;31.20;67.10
10344;DHT22;5217;43.960;10.954;2023-08-24T10:37:08;31.30;66.40
10344;DHT22;5217;43.960;10.954;2023-08-24T10:39:44;31.30;64.10
10344;DHT22;5217;43.960;10.954;2023-08-24T10:42:13;31.40;63.20
10344;DHT22;5217;43.960;10.954;2023-08-24T10:44:44;31.40;63.20
10344;DHT22;5217;43.960;10.954;2023-08-24T10:47:15;31.40;63.30
10344;DHT22;5217;43.960;10.954;2023-08-24T10:49:45;31.50;63.00
10344;DHT22;5217;43.960;10.954;2023-08-24T10:52:26;31.50;63.30
10344;DHT22;5217;43.960;10.954;2023-08-24T10:55:01;31.60;63.40
10344;DHT22;5217;43.960;10.954;2023-08-24T10:57:35;31.60;64.20
10344;DHT22;5217;43.960;10.954;2023-08-24T11:00:06;31.70;63.60
10344;DHT22;5217;43.960;10.954;2023-08-24T11:02:43;31.70;63.60
10344;DHT22;5217;43.960;10.954;2023-08-24T11:05:17;31.80;62.70
10344;DHT22;5217;43.960;10.954;2023-08-24T11:07:51;31.80;63.60
10344;DHT22;5217;43.960;10.954;2023-08-24T11:10:21;31.90;63.60
10344;DHT22;5217;43.960;10.954;2023-08-24T11:13:09;32.00;62.40
10344;DHT22;5217;43.960;10.954;2023-08-24T11:15:40;32.00;62.60
10344;DHT22;5217;43.960;10.954;2023-08-24T11:18:22;32.00;62.70
10344;DHT22;5217;43.960;10.954;2023-08-24T11:20:53;32.10;61.90
10344;DHT22;5217;43.960;10.954;2023-08-24T11:23:23;32.20;61.90
10344;DHT22;5217;43.960;10.954;2023-08-24T11:25:54;32.20;62.50
10344;DHT22;5217;43.960;10.954;2023-08-24T11:28:26;32.30;62.40
10344;DHT22;5217;43.960;10.954;2023-08-24T11:30:56;32.40;62.80
10344;DHT22;5217;43.960;10.954;2023-08-24T11:33:29;32.50;60.50
10344;DHT22;5217;43.960;10.954;2023-08-24T11:35:59;32.50;59.60
10344;DHT22;5217;43.960;10.954;2023-08-24T11:38:36;32.70;57.70
10344;DHT22;5217;43.960;10.954;2023-08-24T11:41:12;32.80;57.90
10344;DHT22;5217;43.960;10.954;2023-08-24T11:43:42;33.00;58.00
10344;DHT22;5217;43.960;10.954;2023-08-24T11:46:10;33.10;58.50
10344;DHT22;5217;43.960;10.954;2023-08-24T11:48:39;33.20;58.70
10344;DHT22;5217;43.960;10.954;2023-08-24T11:51:08;33.30;58.50
10344;DHT22;5217;43.960;10.954;2023-08-24T11:53:40;33.50;58.10
10344;DHT22;5217;43.960;10.954;2023-08-24T11:56:08;33.60;58.60
10344;DHT22;5217;43.960;10.954;2023-08-24T11:58:39;33.80;59.00
10344;DHT22;5217;43.960;10.954;2023-08-24T12:01:08;33.90;58.60
10344;DHT22;5217;43.960;10.954;2023-08-24T12:03:37;34.00;57.10
10344;DHT22;5217;43.960;10.954;2023-08-24T12:06:10;34.20;56.90
10344;DHT22;5217;43.960;10.954;2023-08-24T12:08:40;34.40;56.90
10344;DHT22;5217;43.960;10.954;2023-08-24T12:11:13;34.50;57.40
10344;DHT22;5217;43.960;10.954;2023-08-24T12:13:48;34.70;57.40
10344;DHT22;5217;43.960;10.954;2023-08-24T12:16:16;34.90;58.00
10344;DHT22;5217;43.960;10.954;2023-08-24T12:18:52;35.00;57.00
10344;DHT22;5217;43.960;10.954;2023-08-24T12:21:21;35.20;56.70
10344;DHT22;5217;43.960;10.954;2023-08-24T12:23:56;35.30;56.70
10344;DHT22;5217;43.960;10.954;2023-08-24T12:26:25;35.50;56.40
10344;DHT22;5217;43.960;10.954;2023-08-24T12:29:00;35.70;56.60
10344;DHT22;5217;43.960;10.954;2023-08-24T12:31:30;35.90;57.10
10344;DHT22;5217;43.960;10.954;2023-08-24T12:34:00;36.00;57.10
10344;DHT22;5217;43.960;10.954;2023-08-24T12:36:28;36.20;56.30
10344;DHT22;5217;43.960;10.954;2023-08-24T12:38:58;36.30;55.70
10344;DHT22;5217;43.960;10.954;2023-08-24T12:41:26;36.40;55.80
10344;DHT22;5217;43.960;10.954;2023-08-24T12:43:56;36.60;56.20
10344;DHT22;5217;43.960;10.954;2023-08-24T12:46:25;36.70;56.10
10344;DHT22;5217;43.960;10.954;2023-08-24T12:48:55;36.80;55.40
10344;DHT22;5217;43.960;10.954;2023-08-24T12:51:23;37.00;54.70
10344;DHT22;5217;43.960;10.954;2023-08-24T12:53:52;37.10;54.40
10344;DHT22;5217;43.960;10.954;2023-08-24T12:56:20;37.20;54.10
10344;DHT22;5217;43.960;10.954;2023-08-24T12:58:48;37.30;53.90
10344;DHT22;5217;43.960;10.954;2023-08-24T13:01:18;37.30;52.20
10344;DHT22;5217;43.960;10.954;2023-08-24T13:03:47;37.50;52.80
10344;DHT22;5217;43.960;10.954;2023-08-24T13:06:15;37.60;51.70
10344;DHT22;5217;43.960;10.954;2023-08-24T13:08:47;37.60;51.80
10344;DHT22;5217;43.960;10.954;2023-08-24T13:11:15;37.70;52.30
10344;DHT22;5217;43.960;10.954;2023-08-24T13:13:43;37.70;52.70
10344;DHT22;5217;43.960;10.954;2023-08-24T13:16:13;37.80;52.50
10344;DHT22;5217;43.960;10.954;2023-08-24T13:18:43;37.80;51.70
10344;DHT22;5217;43.960;10.954;2023-08-24T13:21:11;38.00;52.10
10344;DHT22;5217;43.960;10.954;2023-08-24T13:23:43;38.00;52.70
10344;DHT22;5217;43.960;10.954;2023-08-24T13:26:17;38.10;53.00
10344;DHT22;5217;43.960;10.954;2023-08-24T13:28:47;38.10;52.90
10344;DHT22;5217;43.960;10.954;2023-08-24T13:31:15;38.10;52.60
10344;DHT22;5217;43.960;10.954;2023-08-24T13:33:46;38.10;51.90
10344;DHT22;5217;43.960;10.954;2023-08-24T13:36:14;38.10;51.10
10344;DHT22;5217;43.960;10.954;2023-08-24T13:38:43;38.10;50.90
10344;DHT22;5217;43.960;10.954;2023-08-24T13:41:12;38.10;51.70
10344;DHT22;5217;43.960;10.954;2023-08-24T13:43:41;38.10;52.40
10344;DHT22;5217;43.960;10.954;2023-08-24T13:46:09;38.10;52.80
10344;DHT22;5217;43.960;10.954;2023-08-24T13:48:38;38.10;52.60
10344;DHT22;5217;43.960;10.954;2023-08-24T13:51:08;38.10;52.20
10344;DHT22;5217;43.960;10.954;2023-08-24T13:53:36;38.10;52.80
10344;DHT22;5217;43.960;10.954;2023-08-24T13:56:05;38.10;52.60
10344;DHT22;5217;43.960;10.954;2023-08-24T13:58:34;38.10;53.20
10344;DHT22;5217;43.960;10.954;2023-08-24T14:01:02;38.00;52.60
10344;DHT22;5217;43.960;10.954;2023-08-24T14:03:31;38.00;52.50
10344;DHT22;5217;43.960;10.954;2023-08-24T14:06:00;38.00;52.80
10344;DHT22;5217;43.960;10.954;2023-08-24T14:08:30;38.00;53.30
10344;DHT22;5217;43.960;10.954;2023-08-24T14:10:58;38.00;52.90
10344;DHT22;5217;43.960;10.954;2023-08-24T14:13:27;37.90;52.90
10344;DHT22;5217;43.960;10.954;2023-08-24T14:15:55;37.90;52.30
10344;DHT22;5217;43.960;10.954;2023-08-24T14:18:24;37.90;52.30
10344;DHT22;5217;43.960;10.954;2023-08-24T14:20:52;37.90;51.60
10344;DHT22;5217;43.960;10.954;2023-08-24T14:23:21;37.80;51.50
10344;DHT22;5217;43.960;10.954;2023-08-24T14:25:50;37.70;52.20
10344;DHT22;5217;43.960;10.954;2023-08-24T14:28:20;37.70;52.80
10344;DHT22;5217;43.960;10.954;2023-08-24T14:30:49;37.70;53.10
10344;DHT22;5217;43.960;10.954;2023-08-24T14:33:18;37.60;53.10
10344;DHT22;5217;43.960;10.954;2023-08-24T14:35:51;37.60;53.20
10344;DHT22;5217;43.960;10.954;2023-08-24T14:38:19;37.60;53.40
10344;DHT22;5217;43.960;10.954;2023-08-24T14:40:48;37.60;53.40
10344;DHT22;5217;43.960;10.954;2023-08-24T14:43:17;37.50;53.60
10344;DHT22;5217;43.960;10.954;2023-08-24T14:45:46;37.50;54.00
10344;DHT22;5217;43.960;10.954;2023-08-24T14:48:14;37.50;54.00
10344;DHT22;5217;43.960;10.954;2023-08-24T14:50:43;37.40;52.50
10344;DHT22;5217;43.960;10.954;2023-08-24T14:53:11;37.40;52.30
10344;DHT22;5217;43.960;10.954;2023-08-24T14:55:40;37.40;52.30
10344;DHT22;5217;43.960;10.954;2023-08-24T14:58:09;37.30;53.30
10344;DHT22;5217;43.960;10.954;2023-08-24T15:00:38;37.30;52.20
10344;DHT22;5217;43.960;10.954;2023-08-24T15:03:07;37.30;52.30
10344;DHT22;5217;43.960;10.954;2023-08-24T15:05:41;37.30;52.60
10344;DHT22;5217;43.960;10.954;2023-08-24T15:08:10;37.20;52.80
10344;DHT22;5217;43.960;10.954;2023-08-24T15:10:39;37.20;52.90
10344;DHT22;5217;43.960;10.954;2023-08-24T15:13:07;37.20;53.20
10344;DHT22;5217;43.960;10.954;2023-08-24T15:15:35;37.20;53.30
10344;DHT22;5217;43.960;10.954;2023-08-24T15:18:06;37.10;53.60
10344;DHT22;5217;43.960;10.954;2023-08-24T15:20:35;37.10;53.50
10344;DHT22;5217;43.960;10.954;2023-08-24T15:23:03;37.10;53.10
10344;DHT22;5217;43.960;10.954;2023-08-24T15:25:33;37.00;52.90
10344;DHT22;5217;43.960;10.954;2023-08-24T15:28:02;37.00;53.10
10344;DHT22;5217;43.960;10.954;2023-08-24T15:30:30;37.00;52.30
10344;DHT22;5217;43.960;10.954;2023-08-24T15:32:59;37.00;52.60
10344;DHT22;5217;43.960;10.954;2023-08-24T15:35:29;36.90;53.00
10344;DHT22;5217;43.960;10.954;2023-08-24T15:37:57;36.90;53.30
10344;DHT22;5217;43.960;10.954;2023-08-24T15:40:29;36.90;53.80
10344;DHT22;5217;43.960;10.954;2023-08-24T15:42:58;36.90;54.50
10344;DHT22;5217;43.960;10.954;2023-08-24T15:45:27;36.90;55.30